Kermoor — FGG9861 — position and weather

sailwx.info

Track history (hours):
 
Tides and Currents Weather Stations Pressure Air Temp Water Temp Dewpoint Dewpoint Depression Visibility Wind Speed Wind Dir Waves Ship Positions

Kermoor

Last reported at 2018-Jun-23 18:15 UTC. Time now 2018-Jun-25 01:47 UTC.
Position N 48°23' W 004°29'.

Length 12 m.

Type: Sailing vessel. MMSI: 227069470.

Date/timePositionNaut miles runAvg speedWind from/ knotsBaromVisibWave heightAir tempDewpointWater temp
2018-Jun-23 18:15N 48°23' W 004°29'0 1.5
2018-Jun-23 18:00N 48°22' W 004°29'2 3.3
2018-Jun-23 17:30N 48°21' W 004°31'2 3.4
2018-Jun-23 17:00N 48°21' W 004°34'1 2.4
2018-Jun-23 16:30N 48°20' W 004°35'3 5.4
2018-Jun-23 16:00N 48°17' W 004°35'0 0.8
2018-Jun-23 15:29N 48°17' W 004°34'2 3.1
2018-Jun-23 15:00N 48°18' W 004°35'2 3.9
2018-Jun-23 14:30N 48°20' W 004°35'2 4.0
2018-Jun-23 14:00N 48°21' W 004°32'1 2.0
2018-Jun-23 13:30N 48°22' W 004°31'1 2.1
2018-Jun-23 13:00N 48°22' W 004°29'1 1.1
2018-Jun-23 12:30N 48°23' W 004°29'0 0.0
2018-Jun-22 11:28N 48°23' W 004°29'0 0.0
2018-Jun-22 10:58N 48°23' W 004°29'0 0.0
2018-Jun-22 10:28N 48°23' W 004°29'0 0.0
2018-Jun-22 09:58N 48°23' W 004°29'0 0.0
2018-Jun-22 09:28N 48°23' W 004°29'0 0.0
2018-Jun-22 08:58N 48°23' W 004°29'  
Track history (hours):
 
Tides and Currents Weather Stations Pressure Air Temp Water Temp Dewpoint Dewpoint Depression Visibility Wind Speed Wind Dir Waves Ship Positions

Kermoor

Last reported at 2018-Jun-23 18:15 UTC. Time now 2018-Jun-25 01:47 UTC.
Position N 48°23' W 004°29'.

Length 12 m.

Type: Sailing vessel. MMSI: 227069470.

Date/timePositionNaut miles runAvg speedWind from/ knotsBaromVisibWave heightAir tempDewpointWater temp
2018-Jun-23 18:15N 48°23' W 004°29'0 1.5
2018-Jun-23 18:00N 48°22' W 004°29'2 3.3
2018-Jun-23 17:30N 48°21' W 004°31'2 3.4
2018-Jun-23 17:00N 48°21' W 004°34'1 2.4
2018-Jun-23 16:30N 48°20' W 004°35'3 5.4
2018-Jun-23 16:00N 48°17' W 004°35'0 0.8
2018-Jun-23 15:29N 48°17' W 004°34'2 3.1
2018-Jun-23 15:00N 48°18' W 004°35'2 3.9
2018-Jun-23 14:30N 48°20' W 004°35'2 4.0
2018-Jun-23 14:00N 48°21' W 004°32'1 2.0
2018-Jun-23 13:30N 48°22' W 004°31'1 2.1
2018-Jun-23 13:00N 48°22' W 004°29'1 1.1
2018-Jun-23 12:30N 48°23' W 004°29'0 0.0
2018-Jun-22 11:28N 48°23' W 004°29'0 0.0
2018-Jun-22 10:58N 48°23' W 004°29'0 0.0
2018-Jun-22 10:28N 48°23' W 004°29'0 0.0
2018-Jun-22 09:58N 48°23' W 004°29'0 0.0
2018-Jun-22 09:28N 48°23' W 004°29'0 0.0
2018-Jun-22 08:58N 48°23' W 004°29'  

Dump ship's entire track history